Colome, South Dakota
Current Conditions -  °F | °C
As of 4:53 AM on Sunday 23 Nov 2014 (Local Time) from KICR Reporting Station
Overcast Overcast  
Wind Chill: 34°   Ceiling: 5500
Heat Index: 42°   Visibility: 10mi
Dew Point: 34°   Wind: 17mph
Humidity: 73%   Direction: 310°NW
Pressure: 29.53"   Gusts: NA
Location:  43.26°N, 99.72°W
Report Text: KICR 231053Z AUTO 31015KT 10SM FEW034 OVC055 06/01 A2953 RMK AO2 SLP005 T00560011
Loading
Personal Weather Stations






























Interactive Weather Map New forecast layout! Learn more

10-Day Weather Forecast

Advertisements
Track Severe Weather on mobile